Terminal Aerodrome Forecast
Issued by NWS

Home | Current Version | Previous Version | Text Only | Print | Product List | Glossary On
Versions: 1 2 3 4 5 6 7 8 9 10 11 12 13 14 15 16 17 18
000
FTUS45 KBOU 192128 AAC
TAFBJC
TAF AMD
KBJC 192128Z 1921/2018 36015G25KT P6SM FEW100 SCT220
     FM192300 30018G28KT P6SM FEW100 SCT220
     FM200100 03014G24KT P6SM SCT080 SCT120
     FM200300 08008KT P6SM SCT080 SCT120
     FM201200 VRB05KT P6SM FEW120 SCT200=

USA.gov is the U.S. government's official web portal to all federal, state and local government web resources and services.